createdAt,value
2022-12-20T00:01:14.228Z,102373.88
2022-12-20T00:08:30.979Z,102377.13
2022-12-20T00:11:01.354Z,102376.47
2022-12-20T00:13:32.792Z,102371.56
2022-12-20T00:16:11.536Z,102361.59
2022-12-20T00:18:40.879Z,102363.28
2022-12-20T00:21:11.839Z,102353.25
2022-12-20T00:23:40.953Z,102352.66
2022-12-20T00:26:19.877Z,102366.28
2022-12-20T00:28:48.528Z,102359.22
2022-12-20T00:31:18.202Z,102351.19
2022-12-20T00:33:47.788Z,102356.25
2022-12-20T00:37:16.839Z,102364.69
2022-12-20T00:39:47.593Z,102347.25
2022-12-20T00:43:23.109Z,102361.19
2022-12-20T00:47:07.865Z,102344.75
2022-12-20T00:49:33.098Z,102357.28
2022-12-20T00:52:00.764Z,102338.72
2022-12-20T00:54:41.405Z,102357.28
2022-12-20T00:57:27.382Z,102342.59
2022-12-20T01:04:06.241Z,102363.81
2022-12-20T01:06:35.263Z,102350.31
2022-12-20T01:09:02.866Z,102356.03
2022-12-20T01:11:33.533Z,102347.06
2022-12-20T01:17:32.859Z,102358.19
2022-12-20T01:20:00.693Z,102345.88
2022-12-20T01:22:28.454Z,102334.72
2022-12-20T01:28:29.678Z,102334.78
2022-12-20T01:30:57.691Z,102333.06
2022-12-20T01:33:25.302Z,102332.19
2022-12-20T01:36:00.403Z,102327.09
2022-12-20T01:42:37.629Z,102338.06
2022-12-20T01:45:09.143Z,102333.28
2022-12-20T01:48:19.178Z,102334.00
2022-12-20T01:50:48.165Z,102325.66
2022-12-20T01:53:18.276Z,102323.41
2022-12-20T01:55:47.950Z,102320.31
2022-12-20T01:58:20.096Z,102313.25
2022-12-20T02:00:48.095Z,102305.78
2022-12-20T02:04:15.094Z,102301.97
2022-12-20T02:07:31.187Z,102293.81
2022-12-20T02:10:01.037Z,102301.06
2022-12-20T02:12:45.533Z,102287.81
2022-12-20T02:19:21.396Z,102290.19
2022-12-20T02:22:04.198Z,102280.28
2022-12-20T02:24:43.570Z,102275.75
2022-12-20T02:27:52.772Z,102280.47
2022-12-20T02:30:22.995Z,102286.09
2022-12-20T02:33:03.696Z,102278.25
2022-12-20T02:35:34.507Z,102271.06
2022-12-20T02:38:30.178Z,102279.88
2022-12-20T02:41:07.310Z,102272.59
2022-12-20T02:43:58.197Z,102270.34
2022-12-20T02:46:27.594Z,102270.63
2022-12-20T02:49:50.161Z,102278.47
2022-12-20T02:52:31.251Z,102272.19
2022-12-20T02:55:03.206Z,102269.72
2022-12-20T02:58:14.000Z,102278.78
2022-12-20T03:00:48.864Z,102261.34
2022-12-20T03:03:23.011Z,102269.84
2022-12-20T03:09:52.848Z,102253.19
2022-12-20T03:12:28.801Z,102260.09
2022-12-20T03:14:56.437Z,102250.03
2022-12-20T03:17:24.220Z,102254.81
2022-12-20T03:20:19.409Z,102254.31
2022-12-20T03:22:47.056Z,102251.03
2022-12-20T03:25:15.043Z,102247.84
2022-12-20T03:31:08.391Z,102245.81
2022-12-20T03:33:44.452Z,102246.09
2022-12-20T03:36:12.648Z,102245.81
2022-12-20T03:38:40.687Z,102251.16
2022-12-20T03:41:09.013Z,102241.97
2022-12-20T03:43:36.625Z,102241.31
2022-12-20T03:46:29.932Z,102242.84
2022-12-20T03:48:58.412Z,102250.63
2022-12-20T03:51:27.976Z,102240.06
2022-12-20T03:57:27.424Z,102248.97
2022-12-20T03:59:57.384Z,102249.91
2022-12-20T04:02:50.267Z,102258.34
2022-12-20T04:05:18.649Z,102242.84
2022-12-20T04:08:57.884Z,102246.00
2022-12-20T04:11:30.896Z,102245.88
2022-12-20T04:14:14.155Z,102245.34
2022-12-20T04:16:44.525Z,102244.03
2022-12-20T04:19:12.513Z,102236.03
2022-12-20T04:21:44.242Z,102234.91
2022-12-20T04:24:12.692Z,102234.53
2022-12-20T04:27:07.775Z,102235.28
2022-12-20T04:29:35.525Z,102238.16
2022-12-20T04:32:06.165Z,102233.59
2022-12-20T04:34:33.982Z,102232.31
2022-12-20T04:37:01.941Z,102231.25
2022-12-20T04:39:39.715Z,102223.63
2022-12-20T04:43:30.371Z,102216.97
2022-12-20T04:50:33.525Z,102198.91
2022-12-20T04:53:19.859Z,102198.63
2022-12-20T04:55:48.352Z,102195.66
2022-12-20T04:58:55.751Z,102205.00
2022-12-20T05:01:24.063Z,102202.25
2022-12-20T05:04:55.519Z,102200.25
2022-12-20T05:08:16.810Z,102200.66
2022-12-20T05:10:44.774Z,102209.00
2022-12-20T05:13:14.005Z,102207.63
2022-12-20T05:15:46.879Z,102196.75
2022-12-20T05:18:14.627Z,102199.47
2022-12-20T05:21:21.804Z,102196.84
2022-12-20T05:24:20.683Z,102200.41
2022-12-20T05:27:30.606Z,102194.53
2022-12-20T05:29:58.659Z,102202.06
2022-12-20T05:32:28.744Z,102202.63
2022-12-20T05:35:31.026Z,102209.38
2022-12-20T05:38:06.915Z,102199.88
2022-12-20T05:40:37.667Z,102212.44
2022-12-20T05:43:06.359Z,102197.31
2022-12-20T05:45:48.520Z,102200.34
2022-12-20T05:48:20.699Z,102195.09
2022-12-20T05:51:39.746Z,102196.03
2022-12-20T05:55:08.121Z,102188.31
2022-12-20T05:58:51.804Z,102175.75
2022-12-20T06:02:02.592Z,102185.06
2022-12-20T06:04:38.701Z,102169.44
2022-12-20T06:07:40.904Z,102179.06
2022-12-20T06:10:09.693Z,102169.34
2022-12-20T06:12:51.619Z,102178.50
2022-12-20T06:15:19.521Z,102172.19
2022-12-20T06:22:08.871Z,102176.56
2022-12-20T06:24:48.595Z,102176.22
2022-12-20T06:27:21.591Z,102184.50
2022-12-20T06:29:55.715Z,102167.88
2022-12-20T06:32:26.959Z,102173.00
2022-12-20T06:34:55.492Z,102171.69
2022-12-20T06:37:23.281Z,102176.19
2022-12-20T06:39:51.047Z,102183.22
2022-12-20T06:42:18.683Z,102184.88
2022-12-20T06:44:47.279Z,102188.50
2022-12-20T06:47:15.900Z,102176.31
2022-12-20T06:49:43.499Z,102191.34
2022-12-20T06:52:19.177Z,102181.19
2022-12-20T06:54:49.877Z,102190.34
2022-12-20T06:57:17.463Z,102192.81
2022-12-20T06:59:47.957Z,102190.91
2022-12-20T07:02:15.829Z,102196.66
2022-12-20T07:04:43.560Z,102193.84
2022-12-20T07:07:13.356Z,102193.72
2022-12-20T07:09:41.638Z,102186.59
2022-12-20T07:12:10.056Z,102182.88
2022-12-20T07:14:37.824Z,102194.09
2022-12-20T07:17:05.998Z,102188.28
2022-12-20T07:19:34.293Z,102193.75
2022-12-20T07:22:02.663Z,102187.22
2022-12-20T07:24:30.354Z,102190.56
2022-12-20T07:26:58.437Z,102187.28
2022-12-20T07:29:25.969Z,102192.13
2022-12-20T07:31:53.677Z,102200.91
2022-12-20T07:34:21.492Z,102184.56
2022-12-20T07:36:48.994Z,102197.06
2022-12-20T07:39:16.844Z,102193.72
2022-12-20T07:41:45.072Z,102197.59
2022-12-20T07:44:16.902Z,102197.09
2022-12-20T07:46:44.371Z,102198.56
2022-12-20T07:49:11.904Z,102186.94
2022-12-20T07:51:43.982Z,102181.03
2022-12-20T07:54:19.579Z,102187.41
2022-12-20T07:56:48.038Z,102192.22
2022-12-20T07:59:20.512Z,102196.50
2022-12-20T08:01:49.103Z,102195.16
2022-12-20T08:04:21.195Z,102196.28
2022-12-20T08:06:50.771Z,102193.47
2022-12-20T08:09:19.304Z,102191.47
2022-12-20T08:11:49.279Z,102199.09
2022-12-20T08:14:18.573Z,102198.75
2022-12-20T08:16:46.641Z,102195.88
2022-12-20T08:19:14.252Z,102192.44
2022-12-20T08:21:41.747Z,102199.91
2022-12-20T08:24:09.375Z,102190.09
2022-12-20T08:26:41.869Z,102203.47
2022-12-20T08:29:09.509Z,102187.09
2022-12-20T08:31:49.475Z,102199.69
2022-12-20T08:34:18.343Z,102199.78
2022-12-20T08:36:45.811Z,102209.75
2022-12-20T08:39:13.321Z,102203.19
2022-12-20T08:41:40.849Z,102202.59
2022-12-20T08:44:09.577Z,102201.47
2022-12-20T08:46:55.358Z,102198.50
2022-12-20T08:49:22.865Z,102201.13
2022-12-20T08:51:50.494Z,102207.75
2022-12-20T08:54:18.020Z,102205.69
2022-12-20T08:56:45.527Z,102205.81
2022-12-20T08:59:13.104Z,102210.91
2022-12-20T09:01:40.868Z,102212.78
2022-12-20T09:04:10.915Z,102199.00
2022-12-20T09:06:39.242Z,102206.47
2022-12-20T09:09:07.575Z,102198.09
2022-12-20T09:11:35.129Z,102199.50
2022-12-20T09:14:03.286Z,102210.91
2022-12-20T09:16:33.271Z,102211.59
2022-12-20T09:19:05.446Z,102193.81
2022-12-20T09:21:34.559Z,102212.25
2022-12-20T09:24:02.086Z,102210.38
2022-12-20T09:26:30.746Z,102203.91
2022-12-20T09:28:59.189Z,102201.50
2022-12-20T09:31:27.302Z,102192.75
2022-12-20T09:33:59.208Z,102190.75
2022-12-20T09:36:29.153Z,102201.22
2022-12-20T09:38:57.585Z,102188.03
2022-12-20T09:41:31.839Z,102186.22
2022-12-20T09:44:01.179Z,102183.41
2022-12-20T09:46:28.860Z,102176.34
2022-12-20T09:48:57.716Z,102176.44
2022-12-20T09:51:44.338Z,102172.84
2022-12-20T09:54:20.670Z,102177.50
2022-12-20T09:57:17.235Z,102163.88
2022-12-20T09:59:50.039Z,102173.84
2022-12-20T10:02:55.736Z,102172.13
2022-12-20T10:05:24.751Z,102184.44
2022-12-20T10:08:09.238Z,102174.88
2022-12-20T10:10:55.590Z,102169.88
2022-12-20T10:13:29.152Z,102163.06
2022-12-20T10:16:27.721Z,102152.78
2022-12-20T10:19:02.104Z,102146.59
2022-12-20T10:21:56.770Z,102137.84
2022-12-20T10:24:35.109Z,102134.34
2022-12-20T10:27:13.407Z,102123.31
2022-12-20T10:29:41.665Z,102118.31
2022-12-20T10:32:18.781Z,102124.75
2022-12-20T10:34:55.281Z,102126.59
2022-12-20T10:37:22.930Z,102117.34
2022-12-20T10:39:52.142Z,102124.75
2022-12-20T10:42:28.730Z,102117.97
2022-12-20T10:44:57.915Z,102107.53
2022-12-20T10:47:45.654Z,102104.34
2022-12-20T10:50:25.070Z,102109.75
2022-12-20T10:53:22.930Z,102099.19
2022-12-20T10:55:51.930Z,102092.44
2022-12-20T10:58:22.296Z,102089.97
2022-12-20T11:00:49.927Z,102080.75
2022-12-20T11:03:22.821Z,102073.28
2022-12-20T11:05:59.665Z,102074.44
2022-12-20T11:08:42.746Z,102072.78
2022-12-20T11:11:22.091Z,102068.50
2022-12-20T11:13:51.466Z,102056.66
2022-12-20T11:16:38.098Z,102049.31
2022-12-20T11:19:29.276Z,102045.72
2022-12-20T11:22:08.038Z,102045.22
2022-12-20T11:25:23.248Z,102043.47
2022-12-20T11:28:21.379Z,102038.88
2022-12-20T11:31:04.300Z,102040.66
2022-12-20T11:33:41.313Z,102044.41
2022-12-20T11:36:25.722Z,102029.22
2022-12-20T11:39:01.550Z,102029.19
2022-12-20T11:41:56.499Z,102031.25
2022-12-20T11:45:03.283Z,102027.63
2022-12-20T11:47:36.116Z,102022.69
2022-12-20T11:50:44.655Z,102016.44
2022-12-20T11:53:39.266Z,102013.22
2022-12-20T11:56:21.620Z,102010.75
2022-12-20T11:59:01.117Z,102003.34
2022-12-20T12:01:41.371Z,102012.69
2022-12-20T12:04:17.532Z,102003.78
2022-12-20T12:06:52.197Z,102007.19
2022-12-20T12:09:36.844Z,102002.78
2022-12-20T12:12:39.524Z,101999.53
2022-12-20T12:15:16.235Z,102003.66
2022-12-20T12:18:03.022Z,102000.16
2022-12-20T12:20:30.378Z,101998.59
2022-12-20T12:23:05.827Z,101997.22
2022-12-20T12:25:33.461Z,101982.47
2022-12-20T12:28:01.219Z,101972.00
2022-12-20T12:30:36.416Z,101985.25
2022-12-20T12:33:23.961Z,101978.28
2022-12-20T12:36:03.949Z,101986.34
2022-12-20T12:38:44.387Z,101984.97
2022-12-20T12:41:39.520Z,101975.53
2022-12-20T12:44:19.150Z,101965.59
2022-12-20T12:46:53.855Z,101976.72
2022-12-20T12:49:24.928Z,101973.47
2022-12-20T12:51:55.886Z,101969.78
2022-12-20T12:54:37.618Z,101960.44
2022-12-20T12:57:14.586Z,101963.63
2022-12-20T12:59:48.395Z,101955.25
2022-12-20T13:02:16.724Z,101961.91
2022-12-20T13:04:53.420Z,101962.72
2022-12-20T13:07:32.912Z,101945.13
2022-12-20T13:10:03.342Z,101950.44
2022-12-20T13:12:36.696Z,101959.31
2022-12-20T13:15:22.428Z,101941.88
2022-12-20T13:17:55.129Z,101935.50
2022-12-20T13:20:24.294Z,101939.19
2022-12-20T13:23:12.905Z,101936.13
2022-12-20T13:25:47.994Z,101930.28
2022-12-20T13:28:24.432Z,101925.03
2022-12-20T13:30:58.082Z,101931.09
2022-12-20T13:33:45.410Z,101926.38
2022-12-20T13:36:12.941Z,101915.81
2022-12-20T13:38:43.270Z,101920.38
2022-12-20T13:41:36.577Z,101924.63
2022-12-20T13:44:16.002Z,101911.94
2022-12-20T13:47:12.539Z,101916.63
2022-12-20T13:49:41.635Z,101913.66
2022-12-20T13:52:32.487Z,101903.19
2022-12-20T13:55:08.137Z,101903.00
2022-12-20T13:57:45.001Z,101902.13
2022-12-20T14:00:25.559Z,101913.63
2022-12-20T14:02:54.630Z,101914.72
2022-12-20T14:05:42.541Z,101910.44
2022-12-20T14:08:16.040Z,101903.91
2022-12-20T14:10:43.538Z,101909.97
2022-12-20T14:13:21.004Z,101908.09
2022-12-20T14:15:49.293Z,101906.41
2022-12-20T14:18:24.820Z,101913.59
2022-12-20T14:20:59.240Z,101905.88
2022-12-20T14:23:37.925Z,101913.19
2022-12-20T14:26:07.564Z,101905.41
2022-12-20T14:28:45.513Z,101910.00
2022-12-20T14:31:48.975Z,101905.56
2022-12-20T14:34:26.010Z,101904.25
2022-12-20T14:37:17.775Z,101908.50
2022-12-20T14:40:11.376Z,101906.06
2022-12-20T14:42:40.257Z,101906.84
2022-12-20T14:45:10.397Z,101903.19
2022-12-20T14:47:47.868Z,101897.22
2022-12-20T14:50:27.953Z,101898.81
2022-12-20T14:52:56.735Z,101891.16
2022-12-20T14:55:33.732Z,101892.81
2022-12-20T14:58:01.875Z,101882.69
2022-12-20T15:00:32.125Z,101875.88
2022-12-20T15:03:02.327Z,101878.13
2022-12-20T15:05:36.361Z,101880.66
2022-12-20T15:08:16.806Z,101882.22
2022-12-20T15:11:09.081Z,101872.63
2022-12-20T15:13:39.754Z,101869.81
2022-12-20T15:16:19.964Z,101874.25
2022-12-20T15:18:49.254Z,101881.81
2022-12-20T15:21:48.824Z,101877.59
2022-12-20T15:24:19.911Z,101869.88
2022-12-20T15:26:49.262Z,101876.38
2022-12-20T15:29:21.366Z,101861.13
2022-12-20T15:31:50.073Z,101864.53
2022-12-20T15:34:29.327Z,101879.41
2022-12-20T15:37:00.175Z,101865.84
2022-12-20T15:39:28.123Z,101868.53
2022-12-20T15:41:56.406Z,101867.34
2022-12-20T15:44:26.858Z,101858.19
2022-12-20T15:46:55.009Z,101864.56
2022-12-20T15:49:28.047Z,101871.88
2022-12-20T15:51:56.248Z,101871.63
2022-12-20T15:54:27.403Z,101881.41
2022-12-20T15:56:57.694Z,101877.63
2022-12-20T15:59:58.317Z,101868.59
2022-12-20T16:02:22.651Z,101864.47
2022-12-20T16:04:51.193Z,101871.44
2022-12-20T16:07:18.870Z,101870.91
2022-12-20T16:09:46.511Z,101858.47
2022-12-20T16:12:18.635Z,101866.03
2022-12-20T16:14:46.251Z,101864.91
2022-12-20T16:17:14.628Z,101863.78
2022-12-20T16:19:45.143Z,101871.81
2022-12-20T16:22:18.309Z,101863.94
2022-12-20T16:24:46.344Z,101874.72
2022-12-20T16:27:13.973Z,101876.44
2022-12-20T16:29:41.734Z,101872.13
2022-12-20T16:32:20.079Z,101870.13
2022-12-20T16:34:49.521Z,101859.53
2022-12-20T16:37:17.481Z,101863.63
2022-12-20T16:39:45.063Z,101859.06
2022-12-20T16:42:17.720Z,101873.31
2022-12-20T16:44:46.308Z,101859.38
2022-12-20T16:47:14.974Z,101870.94
2022-12-20T16:49:49.666Z,101858.81
2022-12-20T16:52:20.007Z,101870.31
2022-12-20T16:54:47.542Z,101854.81
2022-12-20T16:57:15.008Z,101845.63
2022-12-20T16:59:42.364Z,101862.06
2022-12-20T17:02:27.552Z,101864.19
2022-12-20T17:04:55.424Z,101862.66
2022-12-20T17:07:23.035Z,101861.50
2022-12-20T17:09:50.502Z,101852.22
2022-12-20T17:12:20.737Z,101853.00
2022-12-20T17:14:48.997Z,101847.50
2022-12-20T17:17:17.481Z,101853.16
2022-12-20T17:19:45.077Z,101845.41
2022-12-20T17:24:58.235Z,101854.22
2022-12-20T17:27:26.303Z,101850.63
2022-12-20T17:29:53.946Z,101856.44
2022-12-20T17:32:24.561Z,101859.81
2022-12-20T17:34:53.634Z,101857.16
2022-12-20T17:37:21.887Z,101848.97
2022-12-20T17:39:49.461Z,101862.34
2022-12-20T17:42:17.264Z,101847.72
2022-12-20T17:44:46.384Z,101851.75
2022-12-20T17:47:16.489Z,101851.66
2022-12-20T17:49:44.082Z,101854.00
2022-12-20T17:52:15.602Z,101859.81
2022-12-20T17:54:43.195Z,101855.59
2022-12-20T17:57:19.211Z,101854.75
2022-12-20T17:59:47.402Z,101862.06
2022-12-20T18:02:23.573Z,101856.88
2022-12-20T18:04:51.945Z,101851.91
2022-12-20T18:07:19.708Z,101853.22
2022-12-20T18:09:48.288Z,101853.66
2022-12-20T18:12:17.028Z,101855.78
2022-12-20T18:14:45.077Z,101847.72
2022-12-20T18:17:14.078Z,101837.53
2022-12-20T18:19:51.745Z,101837.13
2022-12-20T18:22:19.972Z,101841.78
2022-12-20T18:24:47.486Z,101842.66
2022-12-20T18:27:15.067Z,101836.63
2022-12-20T18:29:43.381Z,101848.75
2022-12-20T18:32:11.180Z,101834.06
2022-12-20T18:34:39.248Z,101834.50
2022-12-20T18:37:06.886Z,101841.59
2022-12-20T18:39:34.391Z,101845.19
2022-12-20T18:42:02.001Z,101850.09
2022-12-20T18:44:29.564Z,101856.78
2022-12-20T18:46:57.136Z,101841.03
2022-12-20T18:49:24.730Z,101843.31
2022-12-20T18:51:52.216Z,101837.59
2022-12-20T18:54:19.765Z,101841.91
2022-12-20T18:56:49.397Z,101844.97
2022-12-20T18:59:17.100Z,101839.28
2022-12-20T19:01:44.708Z,101841.03
2022-12-20T19:04:12.385Z,101847.06
2022-12-20T19:06:40.189Z,101858.63
2022-12-20T19:09:13.378Z,101846.56
2022-12-20T19:11:56.172Z,101842.06
2022-12-20T19:14:28.596Z,101846.25
2022-12-20T19:16:56.220Z,101846.47
2022-12-20T19:19:26.597Z,101845.16
2022-12-20T19:21:54.185Z,101837.53
2022-12-20T19:24:21.843Z,101848.38
2022-12-20T19:26:49.739Z,101854.06
2022-12-20T19:29:17.350Z,101850.78
2022-12-20T19:31:44.965Z,101842.06
2022-12-20T19:34:13.219Z,101842.78
2022-12-20T19:36:43.433Z,101836.56
2022-12-20T19:39:16.947Z,101828.44
2022-12-20T19:41:54.978Z,101822.34
2022-12-20T19:44:28.023Z,101823.94
2022-12-20T19:46:55.764Z,101817.84
2022-12-20T19:49:23.677Z,101810.50
2022-12-20T19:51:51.215Z,101811.94
2022-12-20T19:54:18.788Z,101817.25
2022-12-20T19:56:46.305Z,101817.09
2022-12-20T19:59:14.335Z,101826.56
2022-12-20T20:01:42.062Z,101832.47
2022-12-20T20:04:12.179Z,101819.94
2022-12-20T20:06:39.897Z,101811.88
2022-12-20T20:09:07.732Z,101819.53
2022-12-20T20:11:35.327Z,101811.00
2022-12-20T20:14:04.016Z,101824.31
2022-12-20T20:16:32.007Z,101813.47
2022-12-20T20:18:59.686Z,101811.88
2022-12-20T20:21:27.615Z,101820.47
2022-12-20T20:23:55.610Z,101803.88
2022-12-20T20:26:26.906Z,101815.34
2022-12-20T20:28:54.560Z,101799.28
2022-12-20T20:31:22.627Z,101816.06
2022-12-20T20:33:50.812Z,101800.59
2022-12-20T20:36:21.377Z,101807.03
2022-12-20T20:38:50.291Z,101802.88
2022-12-20T20:41:18.972Z,101802.75
2022-12-20T20:43:52.231Z,101813.09
2022-12-20T20:46:20.043Z,101791.47
2022-12-20T20:48:47.904Z,101807.69
2022-12-20T20:51:15.773Z,101808.13
2022-12-20T20:53:46.512Z,101797.34
2022-12-20T20:56:14.180Z,101807.22
2022-12-20T20:58:42.761Z,101798.41
2022-12-20T21:01:11.268Z,101806.41
2022-12-20T21:03:40.244Z,101798.69
2022-12-20T21:08:56.925Z,101791.66
2022-12-20T21:11:32.847Z,101782.16
2022-12-20T21:14:00.776Z,101793.03
2022-12-20T21:16:29.837Z,101794.97
2022-12-20T21:18:58.942Z,101802.28
2022-12-20T21:21:26.915Z,101804.59
2022-12-20T21:23:55.110Z,101791.38
2022-12-20T21:26:30.197Z,101783.03
2022-12-20T21:29:01.359Z,101785.69
2022-12-20T21:31:29.189Z,101782.00
2022-12-20T21:33:57.389Z,101785.75
2022-12-20T21:36:25.588Z,101769.31
2022-12-20T21:38:55.917Z,101772.06
2022-12-20T21:45:12.104Z,101762.84
2022-12-20T21:47:42.866Z,101778.53
2022-12-20T21:50:10.737Z,101773.53
2022-12-20T21:52:40.074Z,101773.38
2022-12-20T21:55:08.151Z,101768.47
2022-12-20T21:57:35.911Z,101771.31
2022-12-20T22:00:05.035Z,101772.41
2022-12-20T22:02:36.048Z,101767.34
2022-12-20T22:05:03.918Z,101776.16
2022-12-20T22:07:33.775Z,101772.97
2022-12-20T22:10:01.491Z,101771.97
2022-12-20T22:12:29.157Z,101766.00
2022-12-20T22:14:56.795Z,101764.69
2022-12-20T22:17:26.714Z,101757.94
2022-12-20T22:19:54.238Z,101748.41
2022-12-20T22:22:22.006Z,101757.56
2022-12-20T22:24:49.592Z,101761.34
2022-12-20T22:27:17.252Z,101753.75
2022-12-20T22:29:44.823Z,101752.69
2022-12-20T22:32:12.625Z,101755.38
2022-12-20T22:34:40.320Z,101748.06
2022-12-20T22:37:07.898Z,101745.63
2022-12-20T22:39:35.553Z,101743.31
2022-12-20T22:42:03.208Z,101745.31
2022-12-20T22:44:35.951Z,101754.91
2022-12-20T22:47:03.571Z,101733.97
2022-12-20T22:49:31.183Z,101734.19
2022-12-20T22:52:06.816Z,101720.88
2022-12-20T22:54:37.491Z,101737.72
2022-12-20T22:57:05.046Z,101729.69
2022-12-20T22:59:34.681Z,101734.00
2022-12-20T23:02:02.467Z,101730.84
2022-12-20T23:04:30.175Z,101737.28
2022-12-20T23:06:57.852Z,101738.38
2022-12-20T23:09:26.447Z,101725.06
2022-12-20T23:12:12.646Z,101728.41
2022-12-20T23:15:03.829Z,101723.00
2022-12-20T23:17:32.817Z,101704.25
2022-12-20T23:20:18.451Z,101709.03
2022-12-20T23:22:50.941Z,101690.63
2022-12-20T23:25:29.392Z,101701.38
2022-12-20T23:27:59.781Z,101696.28
2022-12-20T23:30:28.087Z,101687.00
2022-12-20T23:32:56.283Z,101693.81
2022-12-20T23:35:56.497Z,101684.63
2022-12-20T23:38:24.076Z,101671.81
2022-12-20T23:40:51.834Z,101674.47
2022-12-20T23:43:19.657Z,101673.97
2022-12-20T23:45:47.356Z,101658.97
2022-12-20T23:48:17.652Z,101666.63
2022-12-20T23:50:45.500Z,101663.44
2022-12-20T23:53:13.037Z,101664.25
2022-12-20T23:55:40.656Z,101668.31
2022-12-20T23:58:08.252Z,101652.59
